Terminal Aerodrome Forecast
Issued by NWS Raleigh/Durham, NC

Current Version | Previous Version | Text Only | Print | Product List | Glossary On
Versions: 1 2 3 4 5 6 7 8 9 10 11 12 13 14 15 16 17 18 19 20 21 22 23 24 25 26 27 28 29 30 31 32 33 34 35 36 37 38
000 FTUS42 KRAH 232222 AAC TAFFAY TAF AMD KFAY 232222Z 2322/2418 13015G30KT P6SM SCT025 BKN040 TEMPO 2322/2324 13025G45KT 4SM -RA FM240000 15015G25KT P6SM BKN050 TEMPO 2400/2403 23020G45KT 1SM +TSRA OVC007CB FM240300 19010KT P6SM BKN080 FM241000 00000KT 3SM BR BKN012 FM241400 24005KT P6SM SKC=

USA.gov is the U.S. government's official web portal to all federal, state and local government web resources and services.